Time;durP1;ratioP1;P1;durP2;ratioP2;P2;SDS_P1;SDS_P2;PMS_P1;PMS_P2;Temp;Humidity;BMP_temperature;BMP_pressure;BME280_temperature;BME280_humidity;BME280_pressure;Samples;Min_cycle;Max_cycle;Signal;HPM_P1;HPM_P2
2023/07/24 00:01:14;;;;;;;1.90;1.00;;;;;;;19.46;89.48;99790.77;107576;1256;62044;-73
2023/07/24 00:03:41;;;;;;;1.50;0.90;;;;;;;19.43;89.73;99791.45;106157;1258;61313;-73
2023/07/24 00:06:08;;;;;;;2.70;1.20;;;;;;;19.39;90.22;99796.73;106097;1257;73736;-71
2023/07/24 00:08:36;;;;;;;1.80;1.00;;;;;;;19.37;90.74;99794.95;106219;1260;71079;-72
2023/07/24 00:11:05;;;;;;;2.50;1.20;;;;;;;19.35;90.69;99796.05;106624;1260;71471;-72
2023/07/24 00:13:32;;;;;;;2.20;1.10;;;;;;;19.33;91.12;99797.39;106511;1256;61360;-71
2023/07/24 00:15:59;;;;;;;2.00;1.10;;;;;;;19.32;91.40;99793.84;106231;1256;61228;-71
2023/07/24 00:18:26;;;;;;;1.90;1.10;;;;;;;19.29;91.55;99790.41;106120;1256;74692;-71
2023/07/24 00:20:52;;;;;;;2.20;1.30;;;;;;;19.26;91.51;99791.40;106372;1260;69928;-71
2023/07/24 00:23:19;;;;;;;2.10;1.00;;;;;;;19.23;91.61;99781.20;106499;1262;71625;-72
2023/07/24 00:25:46;;;;;;;1.60;1.00;;;;;;;19.24;91.37;99781.65;106466;1256;61282;-72
2023/07/24 00:28:13;;;;;;;2.00;1.00;;;;;;;19.23;91.16;99772.55;106260;1256;61250;-72
2023/07/24 00:30:40;;;;;;;1.70;0.90;;;;;;;19.24;91.06;99769.45;106187;1256;74357;-72
2023/07/24 00:33:07;;;;;;;1.30;0.90;;;;;;;19.23;91.05;99769.06;106453;1256;71560;-73
2023/07/24 00:35:34;;;;;;;2.60;1.00;;;;;;;19.22;90.99;99774.54;106182;1257;72045;-72
2023/07/24 00:38:01;;;;;;;1.80;1.00;;;;;;;19.21;91.25;99779.09;106267;1256;62436;-72
2023/07/24 00:40:27;;;;;;;2.50;1.30;;;;;;;19.20;91.15;99772.61;106091;1256;61364;-72
2023/07/24 00:42:54;;;;;;;2.20;1.00;;;;;;;19.20;91.07;99771.29;106188;1256;73463;-74
2023/07/24 00:45:22;;;;;;;1.80;1.10;;;;;;;19.19;90.87;99771.64;106520;1256;71082;-74
2023/07/24 00:47:49;;;;;;;1.90;1.20;;;;;;;19.17;90.85;99764.27;106459;1256;72690;-71
2023/07/24 00:50:17;;;;;;;1.90;1.20;;;;;;;19.14;90.79;99761.49;106192;1256;62199;-71
2023/07/24 00:52:44;;;;;;;2.20;1.10;;;;;;;19.13;90.92;99764.34;106055;1256;61189;-70
2023/07/24 00:55:12;;;;;;;2.10;1.00;;;;;;;19.13;90.93;99762.55;106379;1259;74644;-72
2023/07/24 00:57:40;;;;;;;2.00;1.20;;;;;;;19.13;90.98;99763.42;106298;1256;70722;-72
2023/07/24 01:00:08;;;;;;;2.10;1.30;;;;;;;19.15;90.99;99769.20;106095;1257;71452;-71
2023/07/24 01:02:35;;;;;;;2.00;1.30;;;;;;;19.17;91.03;99775.23;106123;1256;62053;-72
2023/07/24 01:05:02;;;;;;;2.30;1.20;;;;;;;19.17;91.23;99774.31;106367;1256;62202;-72
2023/07/24 01:07:29;;;;;;;2.10;1.50;;;;;;;19.18;91.27;99771.92;106482;1256;73324;-74
2023/07/24 01:09:56;;;;;;;2.00;1.40;;;;;;;19.21;91.11;99770.10;106456;1256;70385;-74
2023/07/24 01:12:35;;;;;;;2.70;1.40;;;;;;;19.21;91.11;99771.09;106153;1256;72808;-73
2023/07/24 01:15:24;;;;;;;3.00;1.50;;;;;;;19.23;90.94;99772.60;106194;1257;61223;-75
2023/07/24 01:17:59;;;;;;;2.60;1.50;;;;;;;19.24;90.84;99765.36;105968;1265;61347;-72
2023/07/24 01:20:29;;;;;;;3.80;1.60;;;;;;;19.26;90.70;99767.64;106354;1256;74086;-75
2023/07/24 01:23:50;;;;;;;3.20;1.90;;;;;;;19.25;90.70;99767.95;106506;1259;70644;-74
2023/07/24 01:26:17;;;;;;;2.70;1.50;;;;;;;19.26;90.25;99756.55;105925;1262;72791;-73
2023/07/24 01:28:45;;;;;;;3.50;1.90;;;;;;;19.26;89.83;99753.55;105771;1262;61771;-72
2023/07/24 01:31:12;;;;;;;3.10;1.70;;;;;;;19.27;89.53;99751.61;106000;1256;61245;-72
2023/07/24 01:33:39;;;;;;;3.50;1.80;;;;;;;19.28;89.22;99751.14;106074;1257;73433;-75
2023/07/24 01:36:07;;;;;;;2.70;1.90;;;;;;;19.29;89.11;99751.97;106328;1256;70796;-73
2023/07/24 01:38:35;;;;;;;2.60;1.80;;;;;;;19.32;88.96;99748.98;106037;1256;856551;-75
2023/07/24 01:41:03;;;;;;;2.70;1.80;;;;;;;19.34;88.73;99746.79;107822;1257;61623;-77
2023/07/24 01:43:30;;;;;;;2.40;2.00;;;;;;;19.34;88.49;99744.80;108716;1260;60049;-75
2023/07/24 01:45:57;;;;;;;2.80;1.80;;;;;;;19.34;88.33;99746.09;107564;1256;74633;-74
2023/07/24 01:48:24;;;;;;;2.50;1.90;;;;;;;19.36;88.27;99744.60;107985;1256;72201;-77
2023/07/24 01:50:51;;;;;;;2.40;2.00;;;;;;;19.37;88.19;99741.21;106040;1256;71312;-73
2023/07/24 01:53:18;;;;;;;2.60;1.70;;;;;;;19.38;88.05;99737.35;106136;1256;62590;-73
2023/07/24 01:55:45;;;;;;;3.10;1.90;;;;;;;19.37;87.91;99740.30;106275;1257;61345;-76
2023/07/24 01:58:11;;;;;;;2.50;2.20;;;;;;;19.36;87.88;99738.36;106194;1256;72603;-74
2023/07/24 02:00:38;;;;;;;2.70;2.00;;;;;;;19.35;87.79;99731.35;106316;1256;70257;-73
2023/07/24 02:03:05;;;;;;;3.60;2.20;;;;;;;19.35;87.85;99739.73;106125;1256;70389;-74
2023/07/24 02:05:32;;;;;;;2.50;2.00;;;;;;;19.32;87.90;99738.41;106129;1258;61349;-75
2023/07/24 02:07:59;;;;;;;3.50;1.90;;;;;;;19.32;87.87;99744.34;106312;1256;61305;-76
2023/07/24 02:10:26;;;;;;;3.10;1.90;;;;;;;19.33;87.54;99745.38;106253;1263;74409;-77
2023/07/24 02:12:53;;;;;;;2.40;1.80;;;;;;;19.35;87.45;99751.69;106165;1259;70064;-74
2023/07/24 02:15:20;;;;;;;3.10;2.10;;;;;;;19.35;87.53;99749.27;106173;1257;71496;-74
2023/07/24 02:17:47;;;;;;;3.80;2.10;;;;;;;19.37;87.38;99745.41;106029;1256;61280;-75
2023/07/24 02:20:14;;;;;;;3.30;1.90;;;;;;;19.38;87.42;99739.73;106205;1256;61662;-75
2023/07/24 02:22:41;;;;;;;3.00;2.10;;;;;;;19.40;87.19;99741.88;106545;1256;75304;-76
2023/07/24 02:25:08;;;;;;;3.80;2.30;;;;;;;19.41;87.13;99735.87;106118;1260;69965;-74
2023/07/24 02:27:36;;;;;;;2.60;2.00;;;;;;;19.41;87.00;99735.37;106047;1256;74421;-72
2023/07/24 02:30:03;;;;;;;3.30;1.90;;;;;;;19.40;87.13;99731.34;106300;1261;61428;-73
2023/07/24 02:32:30;;;;;;;2.10;1.60;;;;;;;19.39;87.02;99728.64;106344;1256;61194;-76
2023/07/24 02:34:56;;;;;;;2.10;1.80;;;;;;;19.39;87.09;99723.85;106078;1260;73490;-74
2023/07/24 02:37:23;;;;;;;3.90;1.80;;;;;;;19.38;86.97;99718.89;107142;1257;71153;-75
2023/07/24 02:39:52;;;;;;;2.70;1.80;;;;;;;19.34;87.04;99721.45;107370;1256;71463;-76
2023/07/24 02:42:18;;;;;;;2.90;1.60;;;;;;;19.29;87.33;99722.91;106331;1256;63260;-72
2023/07/24 02:44:45;;;;;;;2.60;1.50;;;;;;;19.24;87.67;99729.55;106410;1261;62843;-73
2023/07/24 02:47:12;;;;;;;2.50;1.70;;;;;;;19.22;88.05;99727.80;106155;1256;72511;-72
2023/07/24 02:49:40;;;;;;;2.60;1.70;;;;;;;19.20;88.38;99728.59;106253;1256;70544;-72
2023/07/24 02:52:07;;;;;;;2.80;1.60;;;;;;;19.19;88.33;99729.83;106788;1256;72527;-76
2023/07/24 02:54:34;;;;;;;2.40;1.50;;;;;;;19.20;88.49;99732.95;106405;1256;62009;-74
2023/07/24 02:57:02;;;;;;;3.30;1.80;;;;;;;19.21;88.48;99734.20;106240;1256;61263;-76
2023/07/24 02:59:29;;;;;;;2.50;1.70;;;;;;;19.23;88.33;99730.82;106123;1256;73220;-72
2023/07/24 03:01:57;;;;;;;2.30;1.60;;;;;;;19.26;88.17;99732.79;106269;1261;70023;-75
2023/07/24 03:04:24;;;;;;;2.90;1.70;;;;;;;19.29;88.17;99729.15;106236;1261;70262;-75
2023/07/24 03:06:50;;;;;;;2.40;1.80;;;;;;;19.29;88.08;99725.07;106218;1261;61277;-73
2023/07/24 03:09:17;;;;;;;3.00;1.60;;;;;;;19.30;87.89;99721.15;106150;1261;61266;-73
2023/07/24 03:11:44;;;;;;;3.00;1.60;;;;;;;19.32;87.86;99713.90;106248;1256;75184;-73
2023/07/24 03:14:11;;;;;;;3.80;1.60;;;;;;;19.33;87.66;99712.63;106313;1256;70471;-73
2023/07/24 03:16:37;;;;;;;2.20;1.40;;;;;;;19.34;87.72;99721.02;106426;1256;71901;-74
2023/07/24 03:19:04;;;;;;;2.30;1.60;;;;;;;19.34;87.63;99719.10;106111;1256;61150;-73
2023/07/24 03:21:31;;;;;;;2.30;1.40;;;;;;;19.34;87.59;99719.79;106280;1256;61260;-72
2023/07/24 03:23:58;;;;;;;2.20;1.60;;;;;;;19.34;87.49;99722.10;106300;1256;75206;-76
2023/07/24 03:26:25;;;;;;;2.50;1.50;;;;;;;19.34;87.59;99726.52;106246;1256;71389;-74
2023/07/24 03:28:52;;;;;;;2.00;1.30;;;;;;;19.33;87.46;99723.27;106281;1256;72770;-72
2023/07/24 03:31:19;;;;;;;2.60;1.50;;;;;;;19.31;87.31;99729.27;106139;1262;61279;-72
2023/07/24 03:33:45;;;;;;;2.10;1.30;;;;;;;19.30;87.25;99725.95;106187;1257;61244;-72
2023/07/24 03:36:12;;;;;;;2.20;1.30;;;;;;;19.30;87.20;99726.63;106267;1256;74617;-74
2023/07/24 03:38:39;;;;;;;2.70;1.60;;;;;;;19.30;87.19;99723.84;106372;1256;70099;-73
2023/07/24 03:41:06;;;;;;;2.40;1.40;;;;;;;19.31;87.09;99720.24;106237;1256;72750;-72
2023/07/24 03:43:33;;;;;;;2.40;1.50;;;;;;;19.34;87.04;99720.43;106215;1260;62127;-72
2023/07/24 03:46:00;;;;;;;2.40;1.50;;;;;;;19.34;86.84;99712.90;106223;1256;61238;-76
2023/07/24 03:48:27;;;;;;;2.40;1.60;;;;;;;19.37;86.82;99709.85;106249;1256;73539;-73
2023/07/24 03:51:01;;;;;;;2.10;1.40;;;;;;;19.38;86.60;99701.14;106249;1256;71192;-72
2023/07/24 03:53:28;;;;;;;2.10;1.50;;;;;;;19.39;86.42;99699.21;106146;1262;72886;-70
2023/07/24 03:55:58;;;;;;;1.90;1.30;;;;;;;19.41;86.35;99701.92;106344;1257;60929;-75
2023/07/24 03:58:25;;;;;;;2.40;1.40;;;;;;;19.44;86.27;99691.98;106252;1256;61351;-77
2023/07/24 04:00:51;;;;;;;1.80;1.10;;;;;;;19.48;86.09;99693.11;106568;1256;73730;-76
2023/07/24 04:03:19;;;;;;;2.90;1.30;;;;;;;19.50;85.88;99692.15;106160;1256;70993;-72
2023/07/24 04:05:46;;;;;;;2.10;1.30;;;;;;;19.51;85.64;99687.27;106203;1256;71132;-72
2023/07/24 04:08:12;;;;;;;5.80;2.20;;;;;;;19.52;85.52;99689.89;106283;1256;61374;-73
2023/07/24 04:10:39;;;;;;;1.90;1.20;;;;;;;19.52;85.50;99690.33;106317;1256;61247;-71
2023/07/24 04:13:06;;;;;;;2.80;1.40;;;;;;;19.51;85.26;99687.48;106348;1261;74632;-72
2023/07/24 04:15:33;;;;;;;2.70;1.40;;;;;;;19.49;85.23;99689.98;106138;1256;72353;-73
2023/07/24 04:17:59;;;;;;;2.10;1.50;;;;;;;19.47;85.27;99697.79;106239;1256;72633;-75
2023/07/24 04:20:26;;;;;;;2.80;1.30;;;;;;;19.46;85.29;99681.78;106531;1256;62670;-74
2023/07/24 04:22:53;;;;;;;2.20;1.30;;;;;;;19.46;85.34;99669.56;106413;1256;61644;-73
2023/07/24 04:25:20;;;;;;;3.00;1.50;;;;;;;19.43;85.20;99665.20;106242;1260;73468;-72
2023/07/24 04:27:47;;;;;;;2.20;1.30;;;;;;;19.41;85.23;99667.27;106338;1256;70077;-72
2023/07/24 04:30:14;;;;;;;4.00;1.40;;;;;;;19.37;85.48;99667.85;106495;1256;71133;-73
2023/07/24 04:32:41;;;;;;;2.60;1.40;;;;;;;19.35;85.58;99669.55;106282;1256;62318;-75
2023/07/24 04:35:08;;;;;;;2.40;1.40;;;;;;;19.31;85.77;99662.60;106263;1256;61376;-74
2023/07/24 04:37:35;;;;;;;4.10;1.60;;;;;;;19.26;86.02;99664.86;106273;1256;73465;-74
2023/07/24 04:40:02;;;;;;;2.20;1.30;;;;;;;19.21;86.09;99663.37;106403;1261;70101;-76
2023/07/24 04:42:29;;;;;;;2.30;1.30;;;;;;;19.17;86.35;99654.42;106229;1256;72646;-74
2023/07/24 04:44:56;;;;;;;2.30;1.30;;;;;;;19.12;86.46;99652.45;107875;1256;61948;-73
2023/07/24 04:47:23;;;;;;;3.40;1.60;;;;;;;19.08;86.79;99650.31;106288;1256;61247;-72
2023/07/24 04:49:50;;;;;;;2.80;1.50;;;;;;;19.04;86.94;99648.77;107733;1262;73732;-73
2023/07/24 04:52:17;;;;;;;2.20;1.50;;;;;;;19.02;87.05;99646.51;106491;1256;71322;-73
2023/07/24 04:54:44;;;;;;;2.30;1.40;;;;;;;18.98;86.99;99640.45;106343;1256;72905;-73
2023/07/24 04:57:11;;;;;;;2.80;1.40;;;;;;;18.96;87.19;99639.20;106103;1256;62098;-73
2023/07/24 04:59:37;;;;;;;3.30;1.50;;;;;;;18.93;87.38;99638.30;106267;1261;61962;-73
2023/07/24 05:02:04;;;;;;;2.10;1.30;;;;;;;18.92;87.53;99632.77;106225;1262;73339;-76
2023/07/24 05:04:31;;;;;;;2.50;1.30;;;;;;;18.92;87.51;99632.88;106219;1257;71151;-73
2023/07/24 05:06:58;;;;;;;3.20;1.50;;;;;;;18.92;87.74;99627.88;106419;1256;70340;-74
2023/07/24 05:09:25;;;;;;;3.10;1.40;;;;;;;18.92;87.75;99619.44;106048;1256;61396;-74
2023/07/24 05:11:52;;;;;;;3.30;1.40;;;;;;;18.95;87.77;99615.70;106174;1260;61845;-73
2023/07/24 05:14:19;;;;;;;3.70;1.50;;;;;;;19.00;87.78;99610.58;106345;1256;74370;-73
2023/07/24 05:16:45;;;;;;;2.70;1.40;;;;;;;19.06;87.66;99606.65;106368;1256;71164;-74
2023/07/24 05:19:13;;;;;;;2.10;1.30;;;;;;;19.15;87.58;99606.77;106026;1256;72741;-74
2023/07/24 05:21:39;;;;;;;4.00;1.50;;;;;;;19.27;87.46;99610.13;106265;1260;61559;-74
2023/07/24 05:24:06;;;;;;;2.80;1.60;;;;;;;19.43;86.99;99613.45;106334;1262;61344;-75
2023/07/24 05:26:33;;;;;;;2.40;1.50;;;;;;;19.54;86.50;99607.01;106356;1256;72762;-75
2023/07/24 05:29:00;;;;;;;2.00;1.30;;;;;;;19.69;85.90;99601.45;106328;1256;71266;-73
2023/07/24 05:31:27;;;;;;;3.50;1.60;;;;;;;19.88;85.55;99599.29;106093;1256;72748;-73
2023/07/24 05:33:53;;;;;;;4.20;2.80;;;;;;;20.08;84.93;99599.23;106217;1256;61781;-73
2023/07/24 05:36:20;;;;;;;6.80;4.40;;;;;;;20.27;84.49;99606.30;106220;1257;61287;-75
2023/07/24 05:38:47;;;;;;;3.50;1.70;;;;;;;20.48;83.83;99608.65;106705;1256;74480;-75
2023/07/24 05:41:14;;;;;;;3.50;1.70;;;;;;;20.61;82.64;99611.51;106245;1256;70837;-74
2023/07/24 05:43:40;;;;;;;9.80;6.90;;;;;;;20.71;81.97;99608.98;106139;1259;73134;-74
2023/07/24 05:46:07;;;;;;;2.60;1.50;;;;;;;20.79;81.41;99618.86;105999;1256;62940;-77
2023/07/24 05:48:34;;;;;;;3.90;2.10;;;;;;;20.78;80.76;99617.46;106307;1256;61248;-74
2023/07/24 05:51:02;;;;;;;2.20;1.20;;;;;;;20.72;80.40;99608.30;106270;1256;73463;-74
2023/07/24 05:53:29;;;;;;;3.00;1.30;;;;;;;20.61;79.59;99617.55;106284;1256;70925;-74
2023/07/24 05:56:00;;;;;;;2.30;1.40;;;;;;;20.49;79.70;99605.00;106121;1262;73092;-76
2023/07/24 05:58:28;;;;;;;4.50;1.90;;;;;;;20.39;80.26;99585.10;106295;1256;62033;-73
2023/07/24 06:00:57;;;;;;;3.00;1.80;;;;;;;20.30;81.01;99573.77;106213;1256;61276;-76
2023/07/24 06:03:24;;;;;;;2.90;1.50;;;;;;;20.21;81.84;99582.05;105802;1262;74723;-75
2023/07/24 06:05:55;;;;;;;2.40;1.50;;;;;;;20.12;82.84;99608.69;106522;1256;71344;-74
2023/07/24 06:08:22;;;;;;;2.60;1.50;;;;;;;20.04;83.74;99609.90;106487;1262;72736;-72
2023/07/24 06:10:50;;;;;;;3.00;1.30;;;;;;;19.96;84.35;99604.27;106358;1256;62896;-73
2023/07/24 06:13:17;;;;;;;3.70;1.30;;;;;;;19.96;85.33;99594.20;106198;1256;61258;-73
2023/07/24 06:15:44;;;;;;;3.80;1.60;;;;;;;20.01;85.45;99598.85;106323;1256;73169;-73
2023/07/24 06:18:11;;;;;;;3.60;1.40;;;;;;;20.07;85.81;99593.95;106329;1261;69139;-75
2023/07/24 06:20:38;;;;;;;2.30;1.40;;;;;;;20.14;85.85;99591.95;106183;1262;72709;-74
2023/07/24 06:23:04;;;;;;;3.40;1.30;;;;;;;20.27;85.84;99593.20;106130;1262;62212;-73
2023/07/24 06:25:32;;;;;;;2.20;1.40;;;;;;;20.41;85.57;99587.20;106063;1256;61280;-74
2023/07/24 06:27:59;;;;;;;3.00;1.60;;;;;;;20.49;85.10;99584.46;106329;1257;76450;-74
2023/07/24 06:30:26;;;;;;;3.70;1.40;;;;;;;20.58;85.25;99572.86;106427;1256;69758;-74
2023/07/24 06:32:53;;;;;;;3.00;1.70;;;;;;;20.68;84.99;99563.60;106271;1256;72811;-74
2023/07/24 06:35:19;;;;;;;2.70;1.50;;;;;;;20.77;84.63;99552.93;106222;1256;61581;-74
2023/07/24 06:37:46;;;;;;;3.10;1.60;;;;;;;20.86;84.25;99555.84;106170;1257;61257;-75
2023/07/24 06:40:13;;;;;;;2.50;1.60;;;;;;;20.94;83.55;99542.35;106293;1257;74433;-76
2023/07/24 06:42:40;;;;;;;3.30;1.60;;;;;;;21.06;83.59;99538.29;106388;1260;70335;-74
2023/07/24 06:45:07;;;;;;;2.50;1.70;;;;;;;21.17;83.02;99531.46;106433;1256;71509;-74
2023/07/24 06:47:34;;;;;;;5.20;1.80;;;;;;;21.26;82.46;99527.61;108830;1256;62009;-74
2023/07/24 06:50:02;;;;;;;4.10;1.90;;;;;;;21.38;81.65;99524.30;107113;1257;61334;-77
2023/07/24 06:52:29;;;;;;;4.40;1.70;;;;;;;21.44;80.70;99526.06;107294;1257;73573;-75
2023/07/24 06:54:57;;;;;;;2.90;1.50;;;;;;;21.44;80.28;99524.92;107696;1256;71187;-73
2023/07/24 06:57:24;;;;;;;2.90;1.70;;;;;;;21.45;80.28;99535.72;107551;1256;71115;-75
2023/07/24 06:59:51;;;;;;;3.10;1.60;;;;;;;21.46;80.58;99533.95;106783;1257;62060;-74
2023/07/24 07:02:21;;;;;;;3.60;1.60;;;;;;;21.50;80.32;99536.41;106467;1256;61379;-75
2023/07/24 07:04:48;;;;;;;6.20;2.10;;;;;;;21.49;79.92;99543.27;106250;1264;74469;-74
2023/07/24 07:11:02;;;;;;;3.30;1.80;;;;;;;21.46;79.45;99546.23;105747;1256;71282;-73
2023/07/24 07:13:29;;;;;;;37.40;31.50;;;;;;;21.42;79.67;99540.33;105508;1259;61420;-70
2023/07/24 07:15:55;;;;;;;18.40;13.80;;;;;;;21.40;79.75;99546.02;105757;1262;61257;-75
2023/07/24 07:18:23;;;;;;;19.40;13.20;;;;;;;21.35;79.37;99535.03;105598;1260;73213;-75
2023/07/24 07:20:52;;;;;;;16.60;11.00;;;;;;;21.28;79.43;99535.64;105810;1256;72614;-76
2023/07/24 07:23:19;;;;;;;27.90;21.00;;;;;;;21.18;79.80;99531.88;105715;1259;71213;-74
2023/07/24 07:25:46;;;;;;;29.30;20.30;;;;;;;21.12;80.31;99537.84;105643;1256;61305;-75
2023/07/24 07:28:14;;;;;;;3.80;1.90;;;;;;;21.07;80.48;99538.77;105636;1256;61345;-72
2023/07/24 07:30:42;;;;;;;5.20;1.90;;;;;;;20.97;80.19;99537.49;105684;1257;73477;-74
2023/07/24 07:33:11;;;;;;;4.20;2.60;;;;;;;20.87;80.45;99536.80;105812;1263;71042;-76
2023/07/24 07:35:38;;;;;;;3.90;2.30;;;;;;;20.81;80.81;99535.63;105715;1259;72042;-75
2023/07/24 07:38:05;;;;;;;4.40;2.00;;;;;;;20.76;82.29;99536.34;106201;1260;61318;-77
2023/07/24 07:40:49;;;;;;;3.30;2.00;;;;;;;20.65;84.34;99535.46;104474;1291;600111;-73
2023/07/24 07:43:16;;;;;;;3.90;2.40;;;;;;;20.44;85.42;99540.77;105489;1266;59292;-74
2023/07/24 07:45:43;;;;;;;7.80;2.50;;;;;;;20.28;87.04;99539.19;105616;1266;59987;-73
2023/07/24 07:48:10;;;;;;;4.80;2.30;;;;;;;20.12;88.34;99539.53;105545;1266;70762;-73
2023/07/24 07:50:37;;;;;;;3.20;2.40;;;;;;;20.00;89.32;99537.63;105737;1266;72062;-74
2023/07/24 07:53:04;;;;;;;4.00;2.40;;;;;;;19.91;90.48;99536.64;106280;1267;71593;-73
2023/07/24 07:55:30;;;;;;;4.30;2.40;;;;;;;19.84;91.54;99540.98;106293;1266;583748;-73
2023/07/24 07:57:57;;;;;;;5.90;2.70;;;;;;;19.73;91.63;99542.06;105521;1264;60424;-74
2023/07/24 08:00:24;;;;;;;5.50;3.00;;;;;;;19.63;93.30;99545.66;105931;1264;71161;-74
2023/07/24 08:02:51;;;;;;;5.90;2.80;;;;;;;19.55;94.89;99546.01;107122;1264;69827;-73
2023/07/24 08:05:18;;;;;;;7.40;3.30;;;;;;;19.41;96.40;99550.30;108115;1264;71179;-72
2023/07/24 08:07:47;;;;;;;6.20;3.30;;;;;;;19.29;97.28;99548.83;106784;1264;61192;-73
2023/07/24 08:10:16;;;;;;;5.60;3.60;;;;;;;19.24;97.97;99540.04;107339;1265;61139;-72
2023/07/24 08:12:43;;;;;;;4.80;3.20;;;;;;;19.22;98.60;99532.11;106133;1264;73387;-73
2023/07/24 08:15:11;;;;;;;5.60;3.20;;;;;;;19.12;99.18;99529.00;106994;1264;69737;-73
2023/07/24 08:17:37;;;;;;;10.90;3.00;;;;;;;19.00;99.90;99544.09;105951;1268;71969;-73
2023/07/24 08:20:05;;;;;;;6.40;3.10;;;;;;;18.78;100.00;99567.45;106101;1263;61796;-75
2023/07/24 08:22:32;;;;;;;5.50;2.90;;;;;;;18.49;100.00;99552.96;106483;1267;59189;-74
2023/07/24 08:24:59;;;;;;;5.30;3.10;;;;;;;18.30;100.00;99553.48;107283;1264;74154;-72
2023/07/24 08:27:26;;;;;;;6.70;2.80;;;;;;;18.15;100.00;99570.89;105578;1264;71646;-72
2023/07/24 08:29:52;;;;;;;8.40;4.10;;;;;;;18.03;100.00;99576.83;105567;1266;73121;-72
2023/07/24 08:32:20;;;;;;;10.20;4.00;;;;;;;17.96;100.00;99565.79;106881;1263;62122;-75
2023/07/24 08:34:47;;;;;;;8.90;4.10;;;;;;;17.97;100.00;99560.91;106337;1265;62138;-72
2023/07/24 08:37:15;;;;;;;6.70;3.80;;;;;;;18.14;100.00;99559.27;105657;1262;73045;-72
2023/07/24 08:39:41;;;;;;;6.30;3.20;;;;;;;18.41;100.00;99559.77;106169;1263;70017;-73
2023/07/24 08:42:12;;;;;;;5.50;3.00;;;;;;;18.63;100.00;99554.95;107327;1263;72698;-74
2023/07/24 08:44:40;;;;;;;5.20;2.90;;;;;;;18.83;100.00;99556.98;106104;1263;60838;-72
2023/07/24 08:47:10;;;;;;;4.30;2.60;;;;;;;18.95;100.00;99555.45;107109;1260;59295;-73
2023/07/24 08:49:40;;;;;;;6.00;3.00;;;;;;;19.05;100.00;99552.56;107023;1261;73015;-75
2023/07/24 08:52:08;;;;;;;5.00;3.00;;;;;;;19.14;100.00;99550.84;106653;1260;71101;-73
2023/07/24 08:54:38;;;;;;;6.90;3.70;;;;;;;19.23;100.00;99556.27;106499;1256;73242;-73
2023/07/24 08:57:08;;;;;;;6.90;2.90;;;;;;;19.28;100.00;99563.02;106206;1260;62194;-73
2023/07/24 08:59:36;;;;;;;4.90;3.00;;;;;;;19.36;100.00;99572.86;105820;1256;60801;-72
2023/07/24 09:02:02;;;;;;;6.80;3.20;;;;;;;19.49;100.00;99566.46;105923;1258;73107;-72
2023/07/24 09:04:29;;;;;;;3.90;2.50;;;;;;;19.66;100.00;99566.61;106218;1260;68786;-72
2023/07/24 09:06:57;;;;;;;5.10;2.90;;;;;;;19.83;100.00;99559.16;105748;1256;72410;-73
2023/07/24 09:09:31;;;;;;;5.70;2.90;;;;;;;19.97;100.00;99562.33;106195;1256;60806;-72
2023/07/24 09:11:59;;;;;;;5.00;2.80;;;;;;;20.04;100.00;99553.74;106260;1260;59591;-73
2023/07/24 09:14:30;;;;;;;5.00;3.00;;;;;;;20.06;99.89;99552.23;106024;1256;71642;-71
2023/07/24 09:17:09;;;;;;;4.00;2.60;;;;;;;20.08;99.46;99547.50;106068;1256;71148;-71
2023/07/24 09:19:36;;;;;;;4.30;2.70;;;;;;;20.18;98.82;99542.45;106020;1256;72862;-71
2023/07/24 09:22:16;;;;;;;4.90;3.00;;;;;;;20.25;96.82;99542.73;106178;1258;61439;-70
2023/07/24 09:24:56;;;;;;;4.60;3.00;;;;;;;20.27;97.26;99550.93;105811;1257;61326;-68
2023/07/24 09:27:28;;;;;;;3.60;2.90;;;;;;;20.35;97.17;99558.65;105929;1261;71856;-69
2023/07/24 09:29:58;;;;;;;3.60;2.90;;;;;;;20.49;96.02;99556.06;105830;1259;69506;-69
2023/07/24 09:32:26;;;;;;;4.60;2.80;;;;;;;20.70;95.25;99552.34;105800;1256;73671;-68
2023/07/24 09:34:56;;;;;;;3.90;3.10;;;;;;;20.88;93.13;99543.70;105840;1256;60731;-68
2023/07/24 09:37:29;;;;;;;4.90;3.30;;;;;;;21.13;92.45;99539.73;105805;1256;60063;-68
2023/07/24 09:39:56;;;;;;;3.90;3.00;;;;;;;21.37;91.06;99540.75;105697;1256;73083;-67
2023/07/24 09:42:36;;;;;;;4.40;3.00;;;;;;;21.46;87.56;99551.80;105887;1256;70440;-68
2023/07/24 09:45:25;;;;;;;3.80;2.80;;;;;;;21.57;86.83;99550.20;105980;1256;71730;-68
2023/07/24 09:47:53;;;;;;;3.70;3.00;;;;;;;21.75;86.93;99551.80;105960;1256;62583;-69
2023/07/24 09:50:28;;;;;;;2.90;2.40;;;;;;;21.94;85.90;99559.28;105822;1256;59744;-67
2023/07/24 09:52:56;;;;;;;3.40;2.50;;;;;;;22.02;82.84;99556.48;106191;1259;71846;-68
2023/07/24 09:55:30;;;;;;;3.40;2.70;;;;;;;21.99;82.63;99552.00;105948;1256;70030;-67
2023/07/24 09:57:58;;;;;;;4.20;2.70;;;;;;;21.89;82.31;99558.33;106018;1259;71454;-67
2023/07/24 10:00:25;;;;;;;3.60;2.60;;;;;;;21.82;83.69;99553.88;105947;1255;61724;-67
2023/07/24 10:02:52;;;;;;;3.70;2.60;;;;;;;21.88;84.45;99549.09;106126;1256;60397;-68
2023/07/24 10:05:19;;;;;;;3.20;2.80;;;;;;;22.06;83.56;99552.77;106140;1256;73414;-68
2023/07/24 10:07:47;;;;;;;3.90;2.80;;;;;;;22.30;81.28;99552.71;106200;1259;69677;-67
2023/07/24 10:10:14;;;;;;;3.90;2.50;;;;;;;22.41;79.37;99538.91;106680;1255;72851;-68
2023/07/24 10:12:41;;;;;;;3.40;2.90;;;;;;;22.49;79.38;99525.34;106454;1255;62533;-68
2023/07/24 10:15:08;;;;;;;3.70;2.50;;;;;;;22.58;77.73;99524.25;106302;1255;59573;-66
2023/07/24 10:17:40;;;;;;;3.20;2.50;;;;;;;22.67;77.85;99526.55;106752;1256;73052;-67
2023/07/24 10:20:11;;;;;;;4.50;2.90;;;;;;;22.78;76.79;99524.02;108206;1256;71153;-69
2023/07/24 10:22:42;;;;;;;3.90;2.30;;;;;;;23.03;76.16;99520.27;108595;1256;71488;-68
2023/07/24 10:25:10;;;;;;;4.90;2.40;;;;;;;23.25;75.05;99513.98;109018;1256;62243;-69
2023/07/24 10:27:46;;;;;;;3.20;2.40;;;;;;;23.29;73.56;99519.62;108762;1256;59109;-68
2023/07/24 10:30:15;;;;;;;2.90;2.10;;;;;;;23.19;73.63;99507.54;106194;1256;73217;-68
2023/07/24 10:33:11;;;;;;;4.00;2.40;;;;;;;23.14;73.62;99507.61;106165;1253;71179;-69
2023/07/24 10:35:43;;;;;;;3.50;2.50;;;;;;;23.16;74.61;99503.31;106049;1252;70931;-68
2023/07/24 10:38:11;;;;;;;3.10;2.10;;;;;;;23.37;74.49;99499.89;106422;1253;61381;-68
2023/07/24 10:40:40;;;;;;;4.10;3.10;;;;;;;23.57;73.78;99492.54;106031;1254;60500;-69
2023/07/24 10:43:09;;;;;;;5.10;2.50;;;;;;;23.81;73.28;99481.41;106053;1258;71801;-68
2023/07/24 10:45:49;;;;;;;5.80;3.30;;;;;;;24.06;73.12;99478.79;106101;1253;69153;-69
2023/07/24 10:48:17;;;;;;;3.60;2.20;;;;;;;24.23;70.42;99485.13;106189;1258;71139;-67
2023/07/24 10:50:47;;;;;;;3.50;2.40;;;;;;;24.18;68.24;99482.50;106183;1257;60760;-68
2023/07/24 10:53:20;;;;;;;5.30;2.30;;;;;;;24.07;67.83;99475.41;106167;1253;60049;-67
2023/07/24 10:55:48;;;;;;;3.70;2.10;;;;;;;24.00;68.04;99471.23;106346;1253;72403;-69
2023/07/24 10:58:15;;;;;;;4.20;2.30;;;;;;;24.02;67.99;99466.33;105911;1253;70242;-69
2023/07/24 11:00:43;;;;;;;3.60;2.40;;;;;;;24.06;66.79;99474.66;106193;1253;71822;-70
2023/07/24 11:03:11;;;;;;;3.70;2.30;;;;;;;24.01;66.33;99473.33;106165;1254;62001;-70
2023/07/24 11:05:46;;;;;;;2.90;2.50;;;;;;;23.96;64.60;99475.14;106114;1256;59772;-71
2023/07/24 11:08:15;;;;;;;2.80;2.20;;;;;;;23.90;64.38;99474.67;106023;1256;73015;-71
2023/07/24 11:10:49;;;;;;;2.80;2.50;;;;;;;23.79;64.61;99483.87;106223;1254;71232;-71
2023/07/24 11:13:17;;;;;;;3.20;2.60;;;;;;;23.70;65.72;99479.65;106094;1253;70304;-69
2023/07/24 11:15:44;;;;;;;4.40;2.60;;;;;;;23.69;65.75;99475.39;106237;1253;61565;-70
2023/07/24 11:18:12;;;;;;;3.20;2.40;;;;;;;23.73;66.45;99477.07;106234;1252;60050;-69
2023/07/24 11:20:58;;;;;;;3.70;2.40;;;;;;;23.82;66.13;99466.29;105920;1253;73062;-70
2023/07/24 11:23:25;;;;;;;3.50;2.50;;;;;;;23.96;66.16;99466.99;106210;1253;71535;-71
2023/07/24 11:25:54;;;;;;;4.80;2.50;;;;;;;24.09;65.39;99462.64;106148;1254;71976;-70
2023/07/24 11:28:20;;;;;;;3.70;2.60;;;;;;;24.20;64.73;99465.55;106023;1253;60766;-70
2023/07/24 11:30:47;;;;;;;3.90;2.60;;;;;;;24.29;64.20;99457.92;106111;1253;59673;-70
2023/07/24 11:33:16;;;;;;;4.40;2.60;;;;;;;24.39;63.44;99451.80;106273;1253;71815;-70